ELDO2: Baron Fork, Eldon, OK

                                SHEF ID:       ELDO2     Baron Fork at Eldon, OK
STATION TYPE:

PRECIP STAGE STAGE(2) RIV-FLOW BAT-LOAD
in ft ft cfs volt
Ccp-Rev Ccp-Rev Ccp-Rev Ccp-Rev Ccp-Rev
(America/Chicago)
05/04 00:00 0.00 7.50 ---- 501 12.60
05/04 01:00 0.00 7.50 ---- 501 12.59
05/04 02:00 0.00 7.47 ---- 486 12.56
05/04 03:00 0.00 7.48 ---- 491 12.54
05/04 04:00 0.00 7.47 ---- 486 12.52
05/04 05:00 0.00 7.46 ---- 481 12.50
05/04 06:00 0.00 7.45 ---- 476 12.50
05/04 07:00 0.00 7.44 ---- 472 12.48
05/04 08:00 0.00 7.43 ---- 467 12.61
05/04 09:00 0.00 7.43 ---- 467 13.50
05/04 10:00 0.00 7.41 ---- 457 13.36
05/04 11:00 0.00 7.39 ---- 448 13.16
05/04 12:00 0.00 7.37 ---- 439 13.07
05/04 13:00 0.00 7.38 ---- 444 13.00
05/04 14:00 0.00 7.35 ---- 430 12.96
05/04 15:00 0.00 7.37 ---- 439 12.94
05/04 16:00 0.00 7.36 ---- 434 12.92
05/04 17:00 0.00 7.36 ---- 434 12.90
05/04 18:00 0.00 7.35 ---- 430 12.92
05/04 19:00 0.00 7.34 ---- 425 12.93
05/04 20:00 0.00 7.33 ---- 421 12.89
05/04 21:00 0.00 7.33 ---- 421 12.73
05/04 22:00 0.00 7.33 ---- 421 12.67
05/04 23:00 0.00 7.32 ---- 417 12.63
Data processed at Tue 05May2026 04:36 GMT

NOTICE: If you are parsing this page

Please convert to using our Data API. Starting early 2026 we will be migrating to: https://water.usace.army.mil with modern pages rendered in JavaScript. When this migration completes you will no longer be able to scrape this page! CWMSDataAPI (CDA)

Timeseries IDs (TSIDs)

TSIDs used from left to right in the data table
ELDN.Precip-Inc.Total.1Hour.1Hour.Ccp-Rev
ELDN.Stage.Inst.1Hour.0.Ccp-Rev
ELDN.Stage-Alt.Inst.1Hour.0.Ccp-Rev
ELDN.Flow.Inst.1Hour.0.Ccp-Rev
ELDN.Volt-Battery Load.Inst.1Hour.0.Ccp-Rev

                            

All information presented herein is the property of the government of the United States of America and may be revised or deleted at any time without prior notice. Dissemination of this information without the expressed written consent of the Public Affairs Office, Tulsa District U.S. Army Corps of Engineers is strictly prohibited. These data are gathered electronically and, as presented, have NOT undergone any form of quality control. These data are NOT guaranteed to be valid or correct.